PWSweather.com
Personal Weather Stations
Station Observations
CHXDAV1
Chamonix, ChamonixmontblancFR 74400

ChamonixChamonixmontblancFR 74400

Lat: 45.914, Lon: 6.851

Elevation: 3376

Station Type: Davis Vantage Pro 2

http://www.meteo-chamonix.net

Latest ConditionsUpdated 3:05:00 PM GMT+01:01 Thursday, Nov 14, 2019
Currently Today's Max Today's Min Today's Average
Temperature 45.9°F7.7°C 45.9°F7.7°C 24.9°F-3.9°C 36.3°F2.4°C
Dew Point 23.5°F-4.7°C 25.7°F-3.5°C 20.4°F-6.4°C 22.7°F-5.2°C
Winds 7.0 mph SE11.3 kmh SE 11.0 mph -17.7 kmh - - 3.8 mph 6.1 kmh
Wind Gusts 13.0 mph20.9 kmh 38.0 mph61.2 kmh - -
Humidity 41% 93% 38% 61%
Pressure 29.51 in999.3 mb 29.79 in1008.8 mb 29.50 in999.0 mb -
Precipitation - 0.01 in0.3 mm - -
Hour Temp Dew Point Humidity Winds Wind Gusts Pressure Precip Precip Rate Daily Precip Total
03:05 PM 45.9°F7.7°C 23.5°F-4.7°C 41% 7.0 mph SE11.3 kmh SE 13.0 mph20.9 kmh 29.51 in999.3 mb 0.00 in0.0 mm 0.00 in0.0 mm 0.01 in0.3 mm
03:00 PM 45.7°F7.6°C 21.5°F-5.8°C 38% 6.0 mph ESE9.7 kmh ESE 14.0 mph22.5 kmh 29.50 in999.0 mb 0.00 in0.0 mm 0.00 in0.0 mm 0.01 in0.3 mm
02:55 PM 45.4°F7.4°C 21.9°F-5.6°C 39% 6.0 mph E9.7 kmh E 14.0 mph22.5 kmh 29.50 in999.0 mb 0.00 in0.0 mm 0.00 in0.0 mm 0.01 in0.3 mm
02:50 PM 45.1°F7.3°C 22.2°F-5.4°C 40% 6.0 mph ESE9.7 kmh ESE 13.0 mph20.9 kmh 29.51 in999.3 mb 0.00 in0.0 mm 0.00 in0.0 mm 0.01 in0.3 mm
02:45 PM 45.1°F7.3°C 22.8°F-5.1°C 41% 7.0 mph ESE11.3 kmh ESE 18.0 mph29.0 kmh 29.51 in999.3 mb 0.00 in0.0 mm 0.00 in0.0 mm 0.01 in0.3 mm
02:40 PM 45.0°F7.2°C 22.7°F-5.2°C 41% 8.0 mph E12.9 kmh E 18.0 mph29.0 kmh 29.51 in999.3 mb 0.00 in0.0 mm 0.00 in0.0 mm 0.01 in0.3 mm
02:35 PM 44.9°F7.2°C 23.2°F-4.9°C 42% 5.0 mph E8.0 kmh E 14.0 mph22.5 kmh 29.51 in999.3 mb 0.00 in0.0 mm 0.00 in0.0 mm 0.01 in0.3 mm
02:30 PM 44.7°F7.1°C 23.0°F-5.0°C 42% 4.0 mph ESE6.4 kmh ESE 13.0 mph20.9 kmh 29.52 in999.7 mb 0.00 in0.0 mm 0.00 in0.0 mm 0.01 in0.3 mm
02:25 PM 44.8°F7.1°C 24.2°F-4.3°C 44% 5.0 mph ESE8.0 kmh ESE 13.0 mph20.9 kmh 29.52 in999.7 mb 0.00 in0.0 mm 0.00 in0.0 mm 0.01 in0.3 mm
02:20 PM 44.9°F7.2°C 23.7°F-4.6°C 43% 5.0 mph SE8.0 kmh SE 19.0 mph30.6 kmh 29.53 in1000.0 mb 0.00 in0.0 mm 0.00 in0.0 mm 0.01 in0.3 mm
02:15 PM 44.7°F7.1°C 23.5°F-4.7°C 43% 5.0 mph E8.0 kmh E 19.0 mph30.6 kmh 29.52 in999.7 mb 0.00 in0.0 mm 0.00 in0.0 mm 0.01 in0.3 mm
02:10 PM 44.5°F6.9°C 24.5°F-4.2°C 45% 4.0 mph NW6.4 kmh NW 13.0 mph20.9 kmh 29.53 in1000.0 mb 0.00 in0.0 mm 0.00 in0.0 mm 0.01 in0.3 mm
02:05 PM 44.3°F6.8°C 23.7°F-4.6°C 44% 4.0 mph W6.4 kmh W 13.0 mph20.9 kmh 29.53 in1000.0 mb 0.00 in0.0 mm 0.00 in0.0 mm 0.01 in0.3 mm
02:00 PM 44.3°F6.8°C 24.8°F-4.0°C 46% 5.0 mph W8.0 kmh W 18.0 mph29.0 kmh 29.54 in1000.3 mb 0.00 in0.0 mm 0.00 in0.0 mm 0.01 in0.3 mm
01:55 PM 44.3°F6.8°C 25.3°F-3.7°C 47% 6.0 mph NW9.7 kmh NW 18.0 mph29.0 kmh 29.55 in1000.7 mb 0.00 in0.0 mm 0.00 in0.0 mm 0.01 in0.3 mm
01:50 PM 44.3°F6.8°C 25.3°F-3.7°C 47% 7.0 mph NW11.3 kmh NW 17.0 mph27.4 kmh 29.55 in1000.7 mb 0.00 in0.0 mm 0.00 in0.0 mm 0.01 in0.3 mm
01:45 PM 44.3°F6.8°C 25.3°F-3.7°C 47% 7.0 mph NNW11.3 kmh NNW 24.0 mph38.6 kmh 29.54 in1000.3 mb 0.00 in0.0 mm 0.00 in0.0 mm 0.01 in0.3 mm
01:40 PM 44.5°F6.9°C 25.5°F-3.6°C 47% 8.0 mph NW12.9 kmh NW 24.0 mph38.6 kmh 29.53 in1000.0 mb 0.00 in0.0 mm 0.00 in0.0 mm 0.01 in0.3 mm
01:35 PM 44.6°F7.0°C 25.6°F-3.6°C 47% 8.0 mph NW12.9 kmh NW 20.0 mph32.2 kmh 29.54 in1000.3 mb 0.00 in0.0 mm 0.00 in0.0 mm 0.01 in0.3 mm
01:30 PM 44.8°F7.1°C 25.3°F-3.7°C 46% 7.0 mph NW11.3 kmh NW 20.0 mph32.2 kmh 29.55 in1000.7 mb 0.00 in0.0 mm 0.00 in0.0 mm 0.01 in0.3 mm
01:25 PM 45.0°F7.2°C 24.9°F-3.9°C 45% 5.0 mph NW8.0 kmh NW 13.0 mph20.9 kmh 29.55 in1000.7 mb 0.00 in0.0 mm 0.00 in0.0 mm 0.01 in0.3 mm
01:20 PM 45.2°F7.3°C 24.6°F-4.1°C 44% 6.0 mph NW9.7 kmh NW 15.0 mph24.1 kmh 29.55 in1000.7 mb 0.00 in0.0 mm 0.00 in0.0 mm 0.01 in0.3 mm
01:15 PM 45.3°F7.4°C 24.6°F-4.1°C 44% 6.0 mph NNW9.7 kmh NNW 15.0 mph24.1 kmh 29.55 in1000.7 mb 0.00 in0.0 mm 0.00 in0.0 mm 0.01 in0.3 mm
01:10 PM 45.4°F7.4°C 23.6°F-4.7°C 42% 4.0 mph NE6.4 kmh NE 14.0 mph22.5 kmh 29.55 in1000.7 mb 0.00 in0.0 mm 0.00 in0.0 mm 0.01 in0.3 mm
01:05 PM 45.4°F7.4°C 23.6°F-4.7°C 42% 4.0 mph NW6.4 kmh NW 10.0 mph16.1 kmh 29.55 in1000.7 mb 0.00 in0.0 mm 0.00 in0.0 mm 0.01 in0.3 mm
01:00 PM 45.3°F7.4°C 22.4°F-5.3°C 40% 4.0 mph NW6.4 kmh NW 10.0 mph16.1 kmh 29.56 in1001.0 mb 0.00 in0.0 mm 0.00 in0.0 mm 0.01 in0.3 mm
12:55 PM 45.2°F7.3°C 23.4°F-4.8°C 42% 5.0 mph N8.0 kmh N 23.0 mph37.0 kmh 29.56 in1001.0 mb 0.00 in0.0 mm 0.00 in0.0 mm 0.01 in0.3 mm
12:50 PM 45.0°F7.2°C 22.7°F-5.2°C 41% 5.0 mph ENE8.0 kmh ENE 23.0 mph37.0 kmh 29.56 in1001.0 mb 0.00 in0.0 mm 0.00 in0.0 mm 0.01 in0.3 mm
12:45 PM 44.9°F7.2°C 22.6°F-5.2°C 41% 4.0 mph SE6.4 kmh SE 14.0 mph22.5 kmh 29.56 in1001.0 mb 0.00 in0.0 mm 0.00 in0.0 mm 0.01 in0.3 mm
12:40 PM 44.9°F7.2°C 23.7°F-4.6°C 43% 6.0 mph NW9.7 kmh NW 21.0 mph33.8 kmh 29.57 in1001.4 mb 0.00 in0.0 mm 0.00 in0.0 mm 0.01 in0.3 mm
12:35 PM 44.8°F7.1°C 23.1°F-4.9°C 42% 8.0 mph NNW12.9 kmh NNW 23.0 mph37.0 kmh 29.56 in1001.0 mb 0.00 in0.0 mm 0.00 in0.0 mm 0.01 in0.3 mm
12:30 PM 44.5°F6.9°C 22.8°F-5.1°C 42% 7.0 mph NNW11.3 kmh NNW 23.0 mph37.0 kmh 29.55 in1000.7 mb 0.00 in0.0 mm 0.00 in0.0 mm 0.01 in0.3 mm
12:25 PM 44.3°F6.8°C 22.6°F-5.2°C 42% 8.0 mph SE12.9 kmh SE 17.0 mph27.4 kmh 29.55 in1000.7 mb 0.00 in0.0 mm 0.00 in0.0 mm 0.01 in0.3 mm
12:20 PM 44.4°F6.9°C 23.3°F-4.8°C 43% 9.0 mph SE14.5 kmh SE 19.0 mph30.6 kmh 29.55 in1000.7 mb 0.00 in0.0 mm 0.00 in0.0 mm 0.01 in0.3 mm
12:15 PM 44.6°F7.0°C 22.3°F-5.4°C 41% 10.0 mph NNW16.1 kmh NNW 36.0 mph57.9 kmh 29.55 in1000.7 mb 0.00 in0.0 mm 0.00 in0.0 mm 0.01 in0.3 mm
12:10 PM 44.4°F6.9°C 22.7°F-5.2°C 42% 11.0 mph NNW17.7 kmh NNW 36.0 mph57.9 kmh 29.56 in1001.0 mb 0.00 in0.0 mm 0.00 in0.0 mm 0.01 in0.3 mm
12:05 PM 44.2°F6.8°C 22.5°F-5.3°C 42% 11.0 mph NNW17.7 kmh NNW 38.0 mph61.2 kmh 29.56 in1001.0 mb 0.00 in0.0 mm 0.00 in0.0 mm 0.01 in0.3 mm
12:00 PM 44.3°F6.8°C 22.6°F-5.2°C 42% 8.0 mph NNW12.9 kmh NNW 38.0 mph61.2 kmh 29.57 in1001.4 mb 0.00 in0.0 mm 0.00 in0.0 mm 0.01 in0.3 mm
11:55 AM 44.4°F6.9°C 23.3°F-4.8°C 43% 6.0 mph NNW9.7 kmh NNW 21.0 mph33.8 kmh 29.57 in1001.4 mb 0.00 in0.0 mm 0.00 in0.0 mm 0.01 in0.3 mm
11:50 AM 44.2°F6.8°C 23.1°F-4.9°C 43% 7.0 mph NNW11.3 kmh NNW 21.0 mph33.8 kmh 29.57 in1001.4 mb 0.00 in0.0 mm 0.00 in0.0 mm 0.01 in0.3 mm
11:45 AM 44.2°F6.8°C 23.1°F-4.9°C 43% 9.0 mph NNW14.5 kmh NNW 23.0 mph37.0 kmh 29.58 in1001.7 mb 0.00 in0.0 mm 0.00 in0.0 mm 0.01 in0.3 mm
11:40 AM 44.1°F6.7°C 23.0°F-5.0°C 43% 9.0 mph NNW14.5 kmh NNW 23.0 mph37.0 kmh 29.58 in1001.7 mb 0.00 in0.0 mm 0.00 in0.0 mm 0.01 in0.3 mm
11:35 AM 43.9°F6.6°C 22.3°F-5.4°C 42% 9.0 mph NNW14.5 kmh NNW 26.0 mph41.8 kmh 29.59 in1002.0 mb 0.00 in0.0 mm 0.00 in0.0 mm 0.01 in0.3 mm
11:30 AM 43.9°F6.6°C 22.3°F-5.4°C 42% 9.0 mph N14.5 kmh N 26.0 mph41.8 kmh 29.59 in1002.0 mb 0.00 in0.0 mm 0.00 in0.0 mm 0.01 in0.3 mm
11:25 AM 43.8°F6.6°C 22.7°F-5.2°C 43% 7.0 mph N11.3 kmh N 21.0 mph33.8 kmh 29.61 in1002.7 mb 0.00 in0.0 mm 0.00 in0.0 mm 0.01 in0.3 mm
11:20 AM 43.7°F6.5°C 22.6°F-5.2°C 43% 7.0 mph NNE11.3 kmh NNE 21.0 mph33.8 kmh 29.61 in1002.7 mb 0.00 in0.0 mm 0.00 in0.0 mm 0.01 in0.3 mm
11:15 AM 43.6°F6.4°C 22.5°F-5.3°C 43% 6.0 mph E9.7 kmh E 15.0 mph24.1 kmh 29.61 in1002.7 mb 0.00 in0.0 mm 0.00 in0.0 mm 0.01 in0.3 mm
11:10 AM 43.3°F6.3°C 22.3°F-5.4°C 43% 8.0 mph E12.9 kmh E 22.0 mph35.4 kmh 29.61 in1002.7 mb 0.00 in0.0 mm 0.00 in0.0 mm 0.01 in0.3 mm
11:05 AM 43.0°F6.1°C 22.5°F-5.3°C 44% 8.0 mph E12.9 kmh E 26.0 mph41.8 kmh 29.62 in1003.0 mb 0.00 in0.0 mm 0.00 in0.0 mm 0.01 in0.3 mm
11:00 AM 42.9°F6.1°C 21.9°F-5.6°C 43% 8.0 mph E12.9 kmh E 26.0 mph41.8 kmh 29.62 in1003.0 mb 0.00 in0.0 mm 0.00 in0.0 mm 0.01 in0.3 mm
10:55 AM 42.6°F5.9°C 21.6°F-5.8°C 43% 7.0 mph E11.3 kmh E 23.0 mph37.0 kmh 29.62 in1003.0 mb 0.00 in0.0 mm 0.00 in0.0 mm 0.01 in0.3 mm
10:50 AM 42.3°F5.7°C 21.9°F-5.6°C 44% 8.0 mph ESE12.9 kmh ESE 23.0 mph37.0 kmh 29.62 in1003.0 mb 0.00 in0.0 mm 0.00 in0.0 mm 0.01 in0.3 mm
10:45 AM 42.0°F5.6°C 21.6°F-5.8°C 44% 11.0 mph E17.7 kmh E 23.0 mph37.0 kmh 29.63 in1003.4 mb 0.00 in0.0 mm 0.00 in0.0 mm 0.01 in0.3 mm
10:40 AM 41.9°F5.5°C 21.5°F-5.8°C 44% 10.0 mph E16.1 kmh E 21.0 mph33.8 kmh 29.63 in1003.4 mb 0.00 in0.0 mm 0.00 in0.0 mm 0.01 in0.3 mm
10:35 AM 42.2°F5.7°C 21.8°F-5.7°C 44% 9.0 mph E14.5 kmh E 21.0 mph33.8 kmh 29.64 in1003.7 mb 0.00 in0.0 mm 0.00 in0.0 mm 0.01 in0.3 mm
10:30 AM 41.8°F5.4°C 21.5°F-5.8°C 44% 8.0 mph E12.9 kmh E 20.0 mph32.2 kmh 29.64 in1003.7 mb 0.00 in0.0 mm 0.00 in0.0 mm 0.01 in0.3 mm
10:25 AM 41.4°F5.2°C 21.1°F-6.1°C 44% 8.0 mph ESE12.9 kmh ESE 25.0 mph40.2 kmh 29.63 in1003.4 mb 0.00 in0.0 mm 0.00 in0.0 mm 0.01 in0.3 mm
10:20 AM 41.1°F5.1°C 21.3°F-5.9°C 45% 9.0 mph ESE14.5 kmh ESE 25.0 mph40.2 kmh 29.64 in1003.7 mb 0.00 in0.0 mm 0.00 in0.0 mm 0.01 in0.3 mm
10:15 AM 40.6°F4.8°C 21.4°F-5.9°C 46% 9.0 mph ESE14.5 kmh ESE 19.0 mph30.6 kmh 29.64 in1003.7 mb 0.00 in0.0 mm 0.00 in0.0 mm 0.01 in0.3 mm
10:10 AM 40.4°F4.7°C 21.2°F-6.0°C 46% 9.0 mph E14.5 kmh E 18.0 mph29.0 kmh 29.65 in1004.1 mb 0.00 in0.0 mm 0.00 in0.0 mm 0.01 in0.3 mm
10:05 AM 40.2°F4.6°C 21.6°F-5.8°C 47% 10.0 mph ESE16.1 kmh ESE 20.0 mph32.2 kmh 29.65 in1004.1 mb 0.00 in0.0 mm 0.00 in0.0 mm 0.01 in0.3 mm
10:00 AM 40.1°F4.5°C 21.5°F-5.8°C 47% 11.0 mph ESE17.7 kmh ESE 28.0 mph45.1 kmh 29.66 in1004.4 mb 0.00 in0.0 mm 0.00 in0.0 mm 0.01 in0.3 mm
09:55 AM 40.1°F4.5°C 21.5°F-5.8°C 47% 10.0 mph ESE16.1 kmh ESE 28.0 mph45.1 kmh 29.65 in1004.1 mb 0.00 in0.0 mm 0.00 in0.0 mm 0.01 in0.3 mm
09:50 AM 39.9°F4.4°C 21.3°F-5.9°C 47% 10.0 mph ESE16.1 kmh ESE 20.0 mph32.2 kmh 29.66 in1004.4 mb 0.00 in0.0 mm 0.00 in0.0 mm 0.01 in0.3 mm
09:45 AM 39.8°F4.3°C 20.7°F-6.3°C 46% 9.0 mph SE14.5 kmh SE 20.0 mph32.2 kmh 29.66 in1004.4 mb 0.00 in0.0 mm 0.00 in0.0 mm 0.01 in0.3 mm
09:40 AM 39.6°F4.2°C 21.5°F-5.8°C 48% 8.0 mph SE12.9 kmh SE 17.0 mph27.4 kmh 29.66 in1004.4 mb 0.01 in0.3 mm 0.00 in0.0 mm 0.01 in0.3 mm
09:35 AM 39.3°F4.1°C 21.2°F-6.0°C 48% 7.0 mph SE11.3 kmh SE 17.0 mph27.4 kmh 29.66 in1004.4 mb 0.01 in0.3 mm 0.00 in0.0 mm 0.01 in0.3 mm
09:30 AM 39.2°F4.0°C 21.1°F-6.1°C 48% 6.0 mph SE9.7 kmh SE 14.0 mph22.5 kmh 29.67 in1004.7 mb 0.01 in0.3 mm 0.00 in0.0 mm 0.01 in0.3 mm
09:25 AM 39.0°F3.9°C 20.9°F-6.2°C 48% 4.0 mph SE6.4 kmh SE 12.0 mph19.3 kmh 29.67 in1004.7 mb 0.01 in0.3 mm 0.00 in0.0 mm 0.01 in0.3 mm
09:20 AM 38.7°F3.7°C 21.2°F-6.0°C 49% 5.0 mph SE8.0 kmh SE 13.0 mph20.9 kmh 29.67 in1004.7 mb 0.01 in0.3 mm 0.00 in0.0 mm 0.01 in0.3 mm
09:15 AM 38.7°F3.7°C 21.2°F-6.0°C 49% 6.0 mph SE9.7 kmh SE 13.0 mph20.9 kmh 29.68 in1005.1 mb 0.01 in0.3 mm 0.00 in0.0 mm 0.01 in0.3 mm
09:10 AM 38.6°F3.7°C 21.5°F-5.8°C 50% 5.0 mph SE8.0 kmh SE 13.0 mph20.9 kmh 29.68 in1005.1 mb 0.01 in0.3 mm 0.00 in0.0 mm 0.01 in0.3 mm
09:05 AM 38.5°F3.6°C 21.0°F-6.1°C 49% 5.0 mph SE8.0 kmh SE 13.0 mph20.9 kmh 29.69 in1005.4 mb 0.01 in0.3 mm 0.00 in0.0 mm 0.01 in0.3 mm
09:00 AM 38.4°F3.6°C 21.4°F-5.9°C 50% 5.0 mph SE8.0 kmh SE 15.0 mph24.1 kmh 29.69 in1005.4 mb 0.01 in0.3 mm 0.00 in0.0 mm 0.01 in0.3 mm
08:55 AM 38.4°F3.6°C 20.9°F-6.2°C 49% 6.0 mph SE9.7 kmh SE 15.0 mph24.1 kmh 29.69 in1005.4 mb 0.01 in0.3 mm 0.00 in0.0 mm 0.01 in0.3 mm
08:50 AM 38.2°F3.4°C 20.7°F-6.3°C 49% 6.0 mph SE9.7 kmh SE 16.0 mph25.7 kmh 29.69 in1005.4 mb 0.01 in0.3 mm 0.00 in0.0 mm 0.01 in0.3 mm
08:45 AM 38.1°F3.4°C 20.6°F-6.3°C 49% 5.0 mph SE8.0 kmh SE 16.0 mph25.7 kmh 29.69 in1005.4 mb 0.01 in0.3 mm 0.12 in3.0 mm 0.01 in0.3 mm
08:40 AM 37.9°F3.3°C 20.9°F-6.2°C 50% 4.0 mph SE6.4 kmh SE 10.0 mph16.1 kmh 29.69 in1005.4 mb 0.00 in0.0 mm 0.00 in0.0 mm 0.00 in0.0 mm
08:35 AM 37.8°F3.2°C 21.3°F-5.9°C 51% 5.0 mph SE8.0 kmh SE 12.0 mph19.3 kmh 29.69 in1005.4 mb 0.00 in0.0 mm 0.00 in0.0 mm 0.00 in0.0 mm
08:30 AM 37.8°F3.2°C 20.8°F-6.2°C 50% 5.0 mph SE8.0 kmh SE 13.0 mph20.9 kmh 29.69 in1005.4 mb 0.00 in0.0 mm 0.00 in0.0 mm 0.00 in0.0 mm
08:25 AM 37.7°F3.2°C 20.7°F-6.3°C 50% 5.0 mph SE8.0 kmh SE 13.0 mph20.9 kmh 29.69 in1005.4 mb 0.00 in0.0 mm 0.00 in0.0 mm 0.00 in0.0 mm
08:20 AM 37.7°F3.2°C 20.7°F-6.3°C 50% 5.0 mph SE8.0 kmh SE 12.0 mph19.3 kmh 29.69 in1005.4 mb 0.00 in0.0 mm 0.00 in0.0 mm 0.00 in0.0 mm
08:15 AM 37.6°F3.1°C 21.1°F-6.1°C 51% 4.0 mph SE6.4 kmh SE 10.0 mph16.1 kmh 29.69 in1005.4 mb 0.00 in0.0 mm 0.00 in0.0 mm 0.00 in0.0 mm
08:10 AM 37.6°F3.1°C 20.6°F-6.3°C 50% 3.0 mph SE4.8 kmh SE 10.0 mph16.1 kmh 29.69 in1005.4 mb 0.00 in0.0 mm 0.00 in0.0 mm 0.00 in0.0 mm
08:05 AM 37.5°F3.1°C 20.5°F-6.4°C 50% 3.0 mph SE4.8 kmh SE 12.0 mph19.3 kmh 29.69 in1005.4 mb 0.00 in0.0 mm 0.00 in0.0 mm 0.00 in0.0 mm
08:00 AM 37.4°F3.0°C 20.4°F-6.4°C 50% 3.0 mph ESE4.8 kmh ESE 12.0 mph19.3 kmh 29.69 in1005.4 mb 0.00 in0.0 mm 0.00 in0.0 mm 0.00 in0.0 mm
07:55 AM 37.4°F3.0°C 20.9°F-6.2°C 51% 2.0 mph SE3.2 kmh SE 9.0 mph14.5 kmh 29.69 in1005.4 mb 0.00 in0.0 mm 0.00 in0.0 mm 0.00 in0.0 mm
07:50 AM 37.4°F3.0°C 20.4°F-6.4°C 50% 3.0 mph SE4.8 kmh SE 11.0 mph17.7 kmh 29.68 in1005.1 mb 0.00 in0.0 mm 0.00 in0.0 mm 0.00 in0.0 mm
07:45 AM 37.3°F2.9°C 20.8°F-6.2°C 51% 3.0 mph SE4.8 kmh SE 11.0 mph17.7 kmh 29.67 in1004.7 mb 0.00 in0.0 mm 0.00 in0.0 mm 0.00 in0.0 mm
07:40 AM 37.3°F2.9°C 20.8°F-6.2°C 51% 4.0 mph SE6.4 kmh SE 11.0 mph17.7 kmh 29.67 in1004.7 mb 0.00 in0.0 mm 0.00 in0.0 mm 0.00 in0.0 mm
07:35 AM 37.3°F2.9°C 20.8°F-6.2°C 51% 4.0 mph SE6.4 kmh SE 13.0 mph20.9 kmh 29.68 in1005.1 mb 0.00 in0.0 mm 0.00 in0.0 mm 0.00 in0.0 mm
07:30 AM 37.2°F2.9°C 20.7°F-6.3°C 51% 3.0 mph ESE4.8 kmh ESE 13.0 mph20.9 kmh 29.68 in1005.1 mb 0.00 in0.0 mm 0.00 in0.0 mm 0.00 in0.0 mm
07:25 AM 37.1°F2.8°C 20.6°F-6.3°C 51% 3.0 mph SE4.8 kmh SE 10.0 mph16.1 kmh 29.68 in1005.1 mb 0.00 in0.0 mm 0.00 in0.0 mm 0.00 in0.0 mm
07:20 AM 37.1°F2.8°C 21.1°F-6.1°C 52% 3.0 mph SE4.8 kmh SE 10.0 mph16.1 kmh 29.68 in1005.1 mb 0.00 in0.0 mm 0.00 in0.0 mm 0.00 in0.0 mm
07:15 AM 37.0°F2.8°C 20.5°F-6.4°C 51% 4.0 mph SE6.4 kmh SE 15.0 mph24.1 kmh 29.68 in1005.1 mb 0.00 in0.0 mm 0.00 in0.0 mm 0.00 in0.0 mm
07:10 AM 37.0°F2.8°C 21.0°F-6.1°C 52% 4.0 mph SE6.4 kmh SE 15.0 mph24.1 kmh 29.68 in1005.1 mb 0.00 in0.0 mm 0.00 in0.0 mm 0.00 in0.0 mm
07:05 AM 36.9°F2.7°C 20.9°F-6.2°C 52% 3.0 mph SE4.8 kmh SE 12.0 mph19.3 kmh 29.68 in1005.1 mb 0.00 in0.0 mm 0.00 in0.0 mm 0.00 in0.0 mm
07:00 AM 36.9°F2.7°C 21.3°F-5.9°C 53% 1.0 mph SE1.6 kmh SE 8.0 mph12.9 kmh 29.69 in1005.4 mb 0.00 in0.0 mm 0.00 in0.0 mm 0.00 in0.0 mm
06:55 AM 36.9°F2.7°C 21.3°F-5.9°C 53% 1.0 mph WSW1.6 kmh WSW 3.0 mph4.8 kmh 29.69 in1005.4 mb 0.00 in0.0 mm 0.00 in0.0 mm 0.00 in0.0 mm
06:50 AM 37.0°F2.8°C 21.9°F-5.6°C 54% 1.0 mph SE1.6 kmh SE 8.0 mph12.9 kmh 29.69 in1005.4 mb 0.00 in0.0 mm 0.00 in0.0 mm 0.00 in0.0 mm
06:45 AM 37.0°F2.8°C 21.0°F-6.1°C 52% 2.0 mph SE3.2 kmh SE 10.0 mph16.1 kmh 29.68 in1005.1 mb 0.00 in0.0 mm 0.00 in0.0 mm 0.00 in0.0 mm
06:40 AM 37.0°F2.8°C 20.5°F-6.4°C 51% 2.0 mph SE3.2 kmh SE 10.0 mph16.1 kmh 29.68 in1005.1 mb 0.00 in0.0 mm 0.00 in0.0 mm 0.00 in0.0 mm
06:35 AM 37.0°F2.8°C 21.0°F-6.1°C 52% 3.0 mph SE4.8 kmh SE 11.0 mph17.7 kmh 29.68 in1005.1 mb 0.00 in0.0 mm 0.00 in0.0 mm 0.00 in0.0 mm
06:30 AM 36.9°F2.7°C 21.3°F-5.9°C 53% 5.0 mph SE8.0 kmh SE 14.0 mph22.5 kmh 29.68 in1005.1 mb 0.00 in0.0 mm 0.00 in0.0 mm 0.00 in0.0 mm
06:25 AM 36.8°F2.7°C 20.8°F-6.2°C 52% 5.0 mph SE8.0 kmh SE 14.0 mph22.5 kmh 29.68 in1005.1 mb 0.00 in0.0 mm 0.00 in0.0 mm 0.00 in0.0 mm
06:20 AM 36.6°F2.6°C 21.1°F-6.1°C 53% 3.0 mph SE4.8 kmh SE 13.0 mph20.9 kmh 29.68 in1005.1 mb 0.00 in0.0 mm 0.00 in0.0 mm 0.00 in0.0 mm
06:15 AM 36.6°F2.6°C 21.1°F-6.1°C 53% 3.0 mph SE4.8 kmh SE 13.0 mph20.9 kmh 29.69 in1005.4 mb 0.00 in0.0 mm 0.00 in0.0 mm 0.00 in0.0 mm
06:10 AM 36.4°F2.4°C 21.3°F-5.9°C 54% 3.0 mph SE4.8 kmh SE 8.0 mph12.9 kmh 29.68 in1005.1 mb 0.00 in0.0 mm 0.00 in0.0 mm 0.00 in0.0 mm
06:05 AM 36.3°F2.4°C 22.1°F-5.5°C 56% 3.0 mph ESE4.8 kmh ESE 11.0 mph17.7 kmh 29.68 in1005.1 mb 0.00 in0.0 mm 0.00 in0.0 mm 0.00 in0.0 mm
06:00 AM 36.1°F2.3°C 21.0°F-6.1°C 54% 3.0 mph SE4.8 kmh SE 11.0 mph17.7 kmh 29.69 in1005.4 mb 0.00 in0.0 mm 0.00 in0.0 mm 0.00 in0.0 mm
05:55 AM 35.8°F2.1°C 20.8°F-6.2°C 54% 2.0 mph SE3.2 kmh SE 9.0 mph14.5 kmh 29.69 in1005.4 mb 0.00 in0.0 mm 0.00 in0.0 mm 0.00 in0.0 mm
05:50 AM 35.5°F1.9°C 21.3°F-5.9°C 56% 2.0 mph SE3.2 kmh SE 9.0 mph14.5 kmh 29.69 in1005.4 mb 0.00 in0.0 mm 0.00 in0.0 mm 0.00 in0.0 mm
05:45 AM 35.4°F1.9°C 21.7°F-5.7°C 57% 3.0 mph ESE4.8 kmh ESE 10.0 mph16.1 kmh 29.69 in1005.4 mb 0.00 in0.0 mm 0.00 in0.0 mm 0.00 in0.0 mm
05:40 AM 35.1°F1.7°C 21.4°F-5.9°C 57% 2.0 mph ESE3.2 kmh ESE 10.0 mph16.1 kmh 29.68 in1005.1 mb 0.00 in0.0 mm 0.00 in0.0 mm 0.00 in0.0 mm
05:35 AM 34.7°F1.5°C 22.2°F-5.4°C 60% 1.0 mph SE1.6 kmh SE 6.0 mph9.7 kmh 29.68 in1005.1 mb 0.00 in0.0 mm 0.00 in0.0 mm 0.00 in0.0 mm
05:30 AM 34.6°F1.4°C 22.5°F-5.3°C 61% 1.0 mph SE1.6 kmh SE 8.0 mph12.9 kmh 29.69 in1005.4 mb 0.00 in0.0 mm 0.00 in0.0 mm 0.00 in0.0 mm
05:25 AM 34.5°F1.4°C 23.6°F-4.7°C 64% Calm Calm 8.0 mph12.9 kmh 29.69 in1005.4 mb 0.00 in0.0 mm 0.00 in0.0 mm 0.00 in0.0 mm
05:20 AM 34.6°F1.4°C 23.7°F-4.6°C 64% Calm Calm 2.0 mph3.2 kmh 29.69 in1005.4 mb 0.00 in0.0 mm 0.00 in0.0 mm 0.00 in0.0 mm
05:15 AM 34.6°F1.4°C 24.0°F-4.4°C 65% Calm Calm 2.0 mph3.2 kmh 29.69 in1005.4 mb 0.00 in0.0 mm 0.00 in0.0 mm 0.00 in0.0 mm
05:10 AM 34.7°F1.5°C 23.4°F-4.8°C 63% 1.0 mph SE1.6 kmh SE 4.0 mph6.4 kmh 29.69 in1005.4 mb 0.00 in0.0 mm 0.00 in0.0 mm 0.00 in0.0 mm
05:05 AM 34.7°F1.5°C 22.6°F-5.2°C 61% 1.0 mph ESE1.6 kmh ESE 4.0 mph6.4 kmh 29.69 in1005.4 mb 0.00 in0.0 mm 0.00 in0.0 mm 0.00 in0.0 mm
05:00 AM 34.6°F1.4°C 22.9°F-5.1°C 62% 1.0 mph ESE1.6 kmh ESE 4.0 mph6.4 kmh 29.69 in1005.4 mb 0.00 in0.0 mm 0.00 in0.0 mm 0.00 in0.0 mm
04:55 AM 34.5°F1.4°C 22.8°F-5.1°C 62% 1.0 mph ESE1.6 kmh ESE 4.0 mph6.4 kmh 29.69 in1005.4 mb 0.00 in0.0 mm 0.00 in0.0 mm 0.00 in0.0 mm
04:50 AM 34.4°F1.3°C 23.1°F-4.9°C 63% 1.0 mph SE1.6 kmh SE 6.0 mph9.7 kmh 29.69 in1005.4 mb 0.00 in0.0 mm 0.00 in0.0 mm 0.00 in0.0 mm
04:45 AM 34.3°F1.3°C 23.0°F-5.0°C 63% 3.0 mph SE4.8 kmh SE 10.0 mph16.1 kmh 29.70 in1005.8 mb 0.00 in0.0 mm 0.00 in0.0 mm 0.00 in0.0 mm
04:40 AM 34.1°F1.2°C 23.2°F-4.9°C 64% 2.0 mph SE3.2 kmh SE 10.0 mph16.1 kmh 29.70 in1005.8 mb 0.00 in0.0 mm 0.00 in0.0 mm 0.00 in0.0 mm
04:35 AM 33.6°F0.9°C 23.1°F-4.9°C 65% 1.0 mph SE1.6 kmh SE 9.0 mph14.5 kmh 29.70 in1005.8 mb 0.00 in0.0 mm 0.00 in0.0 mm 0.00 in0.0 mm
04:30 AM 33.3°F0.7°C 23.2°F-4.9°C 66% 1.0 mph ESE1.6 kmh ESE 9.0 mph14.5 kmh 29.70 in1005.8 mb 0.00 in0.0 mm 0.00 in0.0 mm 0.00 in0.0 mm
04:25 AM 33.1°F0.6°C 24.4°F-4.2°C 70% Calm Calm 3.0 mph4.8 kmh 29.70 in1005.8 mb 0.00 in0.0 mm 0.00 in0.0 mm 0.00 in0.0 mm
04:20 AM 33.1°F0.6°C 25.1°F-3.8°C 72% 1.0 mph E1.6 kmh E 4.0 mph6.4 kmh 29.70 in1005.8 mb 0.00 in0.0 mm 0.00 in0.0 mm 0.00 in0.0 mm
04:15 AM 33.0°F0.6°C 24.3°F-4.3°C 70% 2.0 mph ESE3.2 kmh ESE 9.0 mph14.5 kmh 29.70 in1005.8 mb 0.00 in0.0 mm 0.00 in0.0 mm 0.00 in0.0 mm
04:10 AM 32.6°F0.3°C 23.2°F-4.9°C 68% 3.0 mph ESE4.8 kmh ESE 11.0 mph17.7 kmh 29.70 in1005.8 mb 0.00 in0.0 mm 0.00 in0.0 mm 0.00 in0.0 mm
04:05 AM 32.0°F0.0°C 23.7°F-4.6°C 71% 2.0 mph ESE3.2 kmh ESE 11.0 mph17.7 kmh 29.71 in1006.1 mb 0.00 in0.0 mm 0.00 in0.0 mm 0.00 in0.0 mm
04:00 AM 31.2°F-0.4°C 25.1°F-3.8°C 78% 1.0 mph E1.6 kmh E 8.0 mph12.9 kmh 29.71 in1006.1 mb 0.00 in0.0 mm 0.00 in0.0 mm 0.00 in0.0 mm
03:55 AM 30.8°F-0.7°C 24.7°F-4.1°C 78% 1.0 mph ESE1.6 kmh ESE 10.0 mph16.1 kmh 29.71 in1006.1 mb 0.00 in0.0 mm 0.00 in0.0 mm 0.00 in0.0 mm
03:50 AM 30.5°F-0.8°C 25.7°F-3.5°C 82% 1.0 mph ESE1.6 kmh ESE 10.0 mph16.1 kmh 29.71 in1006.1 mb 0.00 in0.0 mm 0.00 in0.0 mm 0.00 in0.0 mm
03:45 AM 30.2°F-1.0°C 25.1°F-3.8°C 81% 1.0 mph ESE1.6 kmh ESE 6.0 mph9.7 kmh 29.71 in1006.1 mb 0.00 in0.0 mm 0.00 in0.0 mm 0.00 in0.0 mm
03:40 AM 29.9°F-1.2°C 25.4°F-3.7°C 83% Calm Calm 4.0 mph6.4 kmh 29.71 in1006.1 mb 0.00 in0.0 mm 0.00 in0.0 mm 0.00 in0.0 mm
03:35 AM 29.7°F-1.3°C 25.7°F-3.5°C 85% Calm Calm 6.0 mph9.7 kmh 29.72 in1006.4 mb 0.00 in0.0 mm 0.00 in0.0 mm 0.00 in0.0 mm
03:30 AM 29.6°F-1.3°C 25.4°F-3.7°C 84% 1.0 mph E1.6 kmh E 10.0 mph16.1 kmh 29.71 in1006.1 mb 0.00 in0.0 mm 0.00 in0.0 mm 0.00 in0.0 mm
03:25 AM 29.3°F-1.5°C 25.6°F-3.6°C 86% 2.0 mph ESE3.2 kmh ESE 10.0 mph16.1 kmh 29.71 in1006.1 mb 0.00 in0.0 mm 0.00 in0.0 mm 0.00 in0.0 mm
03:20 AM 28.8°F-1.8°C 24.9°F-3.9°C 85% 3.0 mph ESE4.8 kmh ESE 9.0 mph14.5 kmh 29.71 in1006.1 mb 0.00 in0.0 mm 0.00 in0.0 mm 0.00 in0.0 mm
03:15 AM 27.1°F-2.7°C 24.3°F-4.3°C 89% 2.0 mph ESE3.2 kmh ESE 9.0 mph14.5 kmh 29.71 in1006.1 mb 0.00 in0.0 mm 0.00 in0.0 mm 0.00 in0.0 mm
03:10 AM 26.2°F-3.2°C 24.5°F-4.2°C 93% Calm Calm 2.0 mph3.2 kmh 29.72 in1006.4 mb 0.00 in0.0 mm 0.00 in0.0 mm 0.00 in0.0 mm
03:05 AM 26.0°F-3.3°C 24.3°F-4.3°C 93% Calm Calm 2.0 mph3.2 kmh 29.72 in1006.4 mb 0.00 in0.0 mm 0.00 in0.0 mm 0.00 in0.0 mm
03:00 AM 25.8°F-3.4°C 24.1°F-4.4°C 93% Calm Calm 4.0 mph6.4 kmh 29.73 in1006.8 mb 0.00 in0.0 mm 0.00 in0.0 mm 0.00 in0.0 mm
02:55 AM 25.6°F-3.6°C 23.9°F-4.5°C 93% 1.0 mph W1.6 kmh W 4.0 mph6.4 kmh 29.73 in1006.8 mb 0.00 in0.0 mm 0.00 in0.0 mm 0.00 in0.0 mm
02:50 AM 25.4°F-3.7°C 23.7°F-4.6°C 93% Calm Calm 2.0 mph3.2 kmh 29.74 in1007.1 mb 0.00 in0.0 mm 0.00 in0.0 mm 0.00 in0.0 mm
02:45 AM 25.3°F-3.7°C 23.6°F-4.7°C 93% Calm Calm 2.0 mph3.2 kmh 29.73 in1006.8 mb 0.00 in0.0 mm 0.00 in0.0 mm 0.00 in0.0 mm
02:40 AM 25.2°F-3.8°C 23.5°F-4.7°C 93% Calm Calm 2.0 mph3.2 kmh 29.73 in1006.8 mb 0.00 in0.0 mm 0.00 in0.0 mm 0.00 in0.0 mm
02:35 AM 25.1°F-3.8°C 23.4°F-4.8°C 93% Calm Calm 3.0 mph4.8 kmh 29.73 in1006.8 mb 0.00 in0.0 mm 0.00 in0.0 mm 0.00 in0.0 mm
02:30 AM 25.2°F-3.8°C 23.5°F-4.7°C 93% Calm Calm 3.0 mph4.8 kmh 29.73 in1006.8 mb 0.00 in0.0 mm 0.00 in0.0 mm 0.00 in0.0 mm
02:25 AM 25.1°F-3.8°C 23.4°F-4.8°C 93% Calm Calm 2.0 mph3.2 kmh 29.74 in1007.1 mb 0.00 in0.0 mm 0.00 in0.0 mm 0.00 in0.0 mm
02:20 AM 25.1°F-3.8°C 23.4°F-4.8°C 93% Calm Calm 2.0 mph3.2 kmh 29.74 in1007.1 mb 0.00 in0.0 mm 0.00 in0.0 mm 0.00 in0.0 mm
02:15 AM 25.1°F-3.8°C 23.4°F-4.8°C 93% Calm Calm 1.0 mph1.6 kmh 29.74 in1007.1 mb 0.00 in0.0 mm 0.00 in0.0 mm 0.00 in0.0 mm
02:10 AM 25.1°F-3.8°C 23.4°F-4.8°C 93% Calm Calm -- 29.74 in1007.1 mb 0.00 in0.0 mm 0.00 in0.0 mm 0.00 in0.0 mm
02:05 AM 25.1°F-3.8°C 23.4°F-4.8°C 93% Calm Calm 1.0 mph1.6 kmh 29.74 in1007.1 mb 0.00 in0.0 mm 0.00 in0.0 mm 0.00 in0.0 mm
02:00 AM 25.1°F-3.8°C 23.4°F-4.8°C 93% Calm Calm 1.0 mph1.6 kmh 29.74 in1007.1 mb 0.00 in0.0 mm 0.00 in0.0 mm 0.00 in0.0 mm
01:55 AM 25.1°F-3.8°C 23.4°F-4.8°C 93% Calm Calm 1.0 mph1.6 kmh 29.74 in1007.1 mb 0.00 in0.0 mm 0.00 in0.0 mm 0.00 in0.0 mm
01:50 AM 25.0°F-3.9°C 23.3°F-4.8°C 93% Calm Calm 2.0 mph3.2 kmh 29.74 in1007.1 mb 0.00 in0.0 mm 0.00 in0.0 mm 0.00 in0.0 mm
01:45 AM 25.0°F-3.9°C 23.3°F-4.8°C 93% Calm Calm 2.0 mph3.2 kmh 29.75 in1007.5 mb 0.00 in0.0 mm 0.00 in0.0 mm 0.00 in0.0 mm
01:40 AM 25.0°F-3.9°C 23.3°F-4.8°C 93% Calm Calm 3.0 mph4.8 kmh 29.75 in1007.5 mb 0.00 in0.0 mm 0.00 in0.0 mm 0.00 in0.0 mm
01:35 AM 24.9°F-3.9°C 23.2°F-4.9°C 93% Calm Calm 3.0 mph4.8 kmh 29.75 in1007.5 mb 0.00 in0.0 mm 0.00 in0.0 mm 0.00 in0.0 mm
01:30 AM 24.9°F-3.9°C 23.2°F-4.9°C 93% Calm Calm 2.0 mph3.2 kmh 29.75 in1007.5 mb 0.00 in0.0 mm 0.00 in0.0 mm 0.00 in0.0 mm
01:25 AM 24.9°F-3.9°C 23.2°F-4.9°C 93% Calm Calm 2.0 mph3.2 kmh 29.75 in1007.5 mb 0.00 in0.0 mm 0.00 in0.0 mm 0.00 in0.0 mm
01:20 AM 24.9°F-3.9°C 22.9°F-5.1°C 92% Calm Calm 2.0 mph3.2 kmh 29.76 in1007.8 mb 0.00 in0.0 mm 0.00 in0.0 mm 0.00 in0.0 mm
01:15 AM 24.9°F-3.9°C 22.9°F-5.1°C 92% Calm Calm 1.0 mph1.6 kmh 29.76 in1007.8 mb 0.00 in0.0 mm 0.00 in0.0 mm 0.00 in0.0 mm
01:10 AM 25.0°F-3.9°C 23.0°F-5.0°C 92% Calm Calm 1.0 mph1.6 kmh 29.76 in1007.8 mb 0.00 in0.0 mm 0.00 in0.0 mm 0.00 in0.0 mm
01:05 AM 25.0°F-3.9°C 23.0°F-5.0°C 92% Calm Calm 1.0 mph1.6 kmh 29.76 in1007.8 mb 0.00 in0.0 mm 0.00 in0.0 mm 0.00 in0.0 mm
01:00 AM 25.0°F-3.9°C 23.0°F-5.0°C 92% Calm Calm 1.0 mph1.6 kmh 29.76 in1007.8 mb 0.00 in0.0 mm 0.00 in0.0 mm 0.00 in0.0 mm
12:55 AM 25.1°F-3.8°C 23.1°F-4.9°C 92% Calm Calm 1.0 mph1.6 kmh 29.76 in1007.8 mb 0.00 in0.0 mm 0.00 in0.0 mm 0.00 in0.0 mm
12:50 AM 25.1°F-3.8°C 23.1°F-4.9°C 92% Calm Calm 1.0 mph1.6 kmh 29.76 in1007.8 mb 0.00 in0.0 mm 0.00 in0.0 mm 0.00 in0.0 mm
12:45 AM 25.2°F-3.8°C 23.2°F-4.9°C 92% Calm Calm 1.0 mph1.6 kmh 29.77 in1008.1 mb 0.00 in0.0 mm 0.00 in0.0 mm 0.00 in0.0 mm
12:40 AM 25.2°F-3.8°C 23.2°F-4.9°C 92% Calm Calm -- 29.78 in1008.5 mb 0.00 in0.0 mm 0.00 in0.0 mm 0.00 in0.0 mm
12:35 AM 25.2°F-3.8°C 23.5°F-4.7°C 93% Calm Calm 4.0 mph6.4 kmh 29.78 in1008.5 mb 0.00 in0.0 mm 0.00 in0.0 mm 0.00 in0.0 mm
12:30 AM 25.3°F-3.7°C 23.3°F-4.8°C 92% 1.0 mph SW1.6 kmh SW 4.0 mph6.4 kmh 29.78 in1008.5 mb 0.00 in0.0 mm 0.00 in0.0 mm 0.00 in0.0 mm
12:25 AM 25.3°F-3.7°C 23.3°F-4.8°C 92% Calm Calm 3.0 mph4.8 kmh 29.79 in1008.8 mb 0.00 in0.0 mm 0.00 in0.0 mm 0.00 in0.0 mm
12:20 AM 25.4°F-3.7°C 23.4°F-4.8°C 92% Calm Calm 2.0 mph3.2 kmh 29.79 in1008.8 mb 0.00 in0.0 mm 0.00 in0.0 mm 0.00 in0.0 mm
12:15 AM 25.4°F-3.7°C 23.4°F-4.8°C 92% Calm Calm 1.0 mph1.6 kmh 29.79 in1008.8 mb 0.00 in0.0 mm 0.00 in0.0 mm 0.00 in0.0 mm
12:10 AM 25.5°F-3.6°C 23.5°F-4.7°C 92% Calm Calm 2.0 mph3.2 kmh 29.79 in1008.8 mb 0.00 in0.0 mm 0.00 in0.0 mm 0.00 in0.0 mm
12:05 AM 25.6°F-3.6°C 23.6°F-4.7°C 92% Calm Calm 2.0 mph3.2 kmh 29.78 in1008.5 mb 0.00 in0.0 mm 0.00 in0.0 mm 0.00 in0.0 mm
12:00 AM 25.6°F-3.6°C 23.6°F-4.7°C 92% Calm Calm 1.0 mph1.6 kmh 29.78 in1008.5 mb 0.00 in0.0 mm 0.00 in0.0 mm 0.00 in0.0 mm